CW2798 Aduanas ES current weather conditions

sailwx.info

Wind from 262 at 2 knots gusting 13

Air temperature 17.2° C
Dewpoint 6.4° C

Last reported at 2020-Jan-17 18:00 UTC.
Time now 2020-Jan-17 18:53 UTC

Location: N 38°48' E 000°11'.
View on Google Maps.

See reports from other nearby stations

  
Tides and Currents Weather Stations Pressure Air Temp Water Temp Dewpoint Dewpoint Depression Visibility Wind Speed Wind Dir Waves Ship Positions
date/time (UTC)wind fromknots sea level pressurealtimeterstation pressurevisibilityair tempwater tempwave heightnotes
2020-Jan-17 18:00 262 2 gusting 13 17.2
2020-Jan-17 17:46 252 7 gusting 18 17.8
2020-Jan-17 17:30 294 10 gusting 15 18.3
2020-Jan-17 17:15 275 9 gusting 20 18.3
2020-Jan-17 17:00 271 10 gusting 19 18.3
2020-Jan-17 16:46 253 7 gusting 19 18.3
2020-Jan-17 16:30 311 2 gusting 11 17.8
2020-Jan-17 16:15 323 6 gusting 13 17.2
2020-Jan-17 16:00 284 7 gusting 15 17.2
2020-Jan-17 15:45 281 5 gusting 11 17.2
2020-Jan-17 15:30 311 4 gusting 13 17.2
2020-Jan-17 15:15 254 7 gusting 16 17.8
2020-Jan-17 15:00 335 7 gusting 14 17.8
2020-Jan-17 14:45 319 0 gusting 9 18.3
2020-Jan-17 14:31 264 4 gusting 11 18.3
2020-Jan-17 14:15 327 5 gusting 16 18.3
2020-Jan-17 14:00 296 1 gusting 14 19.4
2020-Jan-17 13:45 325 2 gusting 15 18.9
2020-Jan-17 13:30 309 6 gusting 13 18.9
2020-Jan-17 13:15 311 4 gusting 11 20.0
2020-Jan-17 13:00 287 10 gusting 18 19.4
2020-Jan-17 12:45 254 7 gusting 15 19.4
2020-Jan-17 12:30 258 6 gusting 14 19.4
2020-Jan-17 12:15 302 6 gusting 11 19.4
2020-Jan-17 12:00 254 2 gusting 12 18.9
2020-Jan-17 11:45 282 7 gusting 12 18.9
2020-Jan-17 11:30 285 1 gusting 6 18.3
2020-Jan-17 11:15 266 5 gusting 10 18.3
2020-Jan-17 11:00 246 4 gusting 23 18.3
2020-Jan-17 10:45 275 8 gusting 18 18.3
2020-Jan-17 10:30 278 6 gusting 18 18.3
2020-Jan-17 10:15 265 7 gusting 15 17.8
2020-Jan-17 10:00 280 6 gusting 14 17.8
2020-Jan-17 09:45 321 5 gusting 12 17.2
2020-Jan-17 09:30 276 0 gusting 8 17.8
2020-Jan-17 09:15 325 7 gusting 11 17.2
2020-Jan-17 09:00 311 6 gusting 15 17.2
2020-Jan-17 08:45 259 4 gusting 14 16.1
2020-Jan-17 08:30 255 6 gusting 17 14.4
2020-Jan-17 08:15 250 2 gusting 12 16.1
2020-Jan-17 08:00 294 6 gusting 15 14.4
2020-Jan-17 07:45 335 11.1
2020-Jan-17 07:30 272 15.0
2020-Jan-17 07:15 302 1 gusting 7 13.9
2020-Jan-17 07:00 322 13.9
2020-Jan-17 06:45 300 10.6
2020-Jan-17 06:30 269 10.0
2020-Jan-17 06:15 292 9.4
2020-Jan-17 06:00 329 10.0
2020-Jan-17 05:45 319 8.9
2020-Jan-17 05:30 311 11.1
2020-Jan-17 05:15 012 11.1
2020-Jan-17 05:00 295 9.4
2020-Jan-17 04:45 296 10.0
2020-Jan-17 04:30 270 9.4
2020-Jan-17 04:15 302 10.0
2020-Jan-17 04:00 260 10.0
2020-Jan-17 03:45 270 9.4
2020-Jan-17 03:30 270 8.9
2020-Jan-17 03:15 265 9.4
2020-Jan-17 03:00 275 9.4
2020-Jan-17 02:45 275 9.4
2020-Jan-17 02:30 280 9.4
2020-Jan-17 02:15 258 9.4
2020-Jan-17 02:00 273 9.4
2020-Jan-17 01:45 280 11.1
2020-Jan-17 01:30 309 12.2
2020-Jan-17 01:15 290 10.6
2020-Jan-17 01:00 290 10.6
2020-Jan-17 00:45 290 11.1
2020-Jan-17 00:30 290 11.7
2020-Jan-17 00:15 290 11.7
2020-Jan-17 00:00 290 0 gusting 6 12.2
2020-Jan-16 23:45 295 11.1
2020-Jan-16 23:30 276 12.2
2020-Jan-16 23:15 294 12.8
2020-Jan-16 23:00 283 1 gusting 6 12.8
2020-Jan-16 22:45 275 12.8
2020-Jan-16 22:30 273 12.8
2020-Jan-16 22:15 282 0 gusting 7 12.8
2020-Jan-16 22:00 284 12.2
2020-Jan-16 21:45 279 12.2
2020-Jan-16 21:30 279 12.2
2020-Jan-16 21:15 279 12.8
2020-Jan-16 21:00 244 0 gusting 6 12.8
2020-Jan-16 20:45 267 1 gusting 6 12.8
2020-Jan-16 20:30 272 12.8
2020-Jan-16 20:15 288 12.8
2020-Jan-16 20:00 294 12.8
2020-Jan-16 19:45 280 12.8
2020-Jan-16 19:30 235 12.8
2020-Jan-16 19:15 244 1 gusting 6 12.8
2020-Jan-16 19:01 234 2 gusting 7 13.3
2020-Jan-16 18:45 270 3 gusting 6 12.8
2020-Jan-16 18:30 245 0 gusting 4 13.3
2020-Jan-16 18:15 247 13.3
2020-Jan-16 18:00 277 13.3
2020-Jan-16 17:45 269 6 gusting 8 13.3
2020-Jan-16 17:30 240 1 gusting 6 13.9
2020-Jan-16 17:16 259 13.9
2020-Jan-16 17:00 246 0 gusting 6 13.9
2020-Jan-16 16:45 238 2 gusting 6 15.0
2020-Jan-16 16:30 234 15.6
2020-Jan-16 16:15 244 4 gusting 8 15.6
2020-Jan-16 16:00 254 1 gusting 6 16.1
2020-Jan-16 15:45 165 0 gusting 5 16.7
2020-Jan-16 15:30 190 16.7
2020-Jan-16 15:15 165 0 gusting 5 16.1
2020-Jan-16 15:00 190 2 gusting 6 16.1
2020-Jan-16 14:46 187 16.7
2020-Jan-16 14:30 182 17.2
2020-Jan-16 14:15 198 16.7
2020-Jan-16 14:00 065 15.0
2020-Jan-16 13:45 100 15.0
2020-Jan-16 13:30 092 15.6
2020-Jan-16 13:15 096 15.0
2020-Jan-16 13:00 080 15.6
2020-Jan-16 12:45 090 15.6
2020-Jan-16 12:30 099 15.6
2020-Jan-16 12:15 111 15.6
2020-Jan-16 12:00 107 15.6
2020-Jan-16 11:45 085 15.6
2020-Jan-16 11:30 094 15.0
2020-Jan-16 11:15 095 15.0
2020-Jan-16 11:00 098 15.0
2020-Jan-16 10:45 106 15.0
2020-Jan-16 10:30 115 15.6
2020-Jan-16 10:15 150 15.0
2020-Jan-16 10:00 132 15.0
2020-Jan-16 09:45 229 13.9
2020-Jan-16 09:30 230 13.3
2020-Jan-16 09:15 249 12.8
2020-Jan-16 09:00 242 11.7
2020-Jan-16 08:45 227 11.1
2020-Jan-16 08:30 256 9.4
2020-Jan-16 08:15 254 8.9
2020-Jan-16 08:00 261 8.9
2020-Jan-16 07:45 267 9.4
2020-Jan-16 07:30 245 8.3
2020-Jan-16 07:15 244 8.9
2020-Jan-16 07:00 276 8.3
2020-Jan-16 06:45 279 7.8
2020-Jan-16 06:30 311 8.3
2020-Jan-16 06:15 311 10.0
2020-Jan-16 06:01 297 9.4
2020-Jan-16 05:45 300 9.4
2020-Jan-16 05:30 303 10.0
2020-Jan-16 05:15 300 9.4
2020-Jan-16 05:00 300 10.0
2020-Jan-16 04:45 316 10.0
2020-Jan-16 04:30 295 9.4
2020-Jan-16 04:15 304 11.1
2020-Jan-16 04:00 304 10.6
2020-Jan-16 03:45 304 10.0
2020-Jan-16 03:30 287 10.0
2020-Jan-16 03:15 050 11.7
2020-Jan-16 03:01 050 12.2
2020-Jan-16 02:45 302 12.2
2020-Jan-16 02:30 287 12.2
2020-Jan-16 02:15 269 12.2
2020-Jan-16 02:00 261 11.7
2020-Jan-16 01:46 317 11.7
2020-Jan-16 01:31 292 11.7
2020-Jan-16 01:15 279 11.7
2020-Jan-16 01:00 277 12.2
2020-Jan-16 00:45 263 12.2
2020-Jan-16 00:30 286 12.8
2020-Jan-16 00:15 282 11.7
2020-Jan-16 00:00 264 10.6
2020-Jan-15 23:46 264 10.6
2020-Jan-15 23:30 261 10.6
2020-Jan-15 23:15 256 10.0
2020-Jan-15 23:00 259 10.6
2020-Jan-15 22:45 265 10.6
2020-Jan-15 22:30 265 10.6
2020-Jan-15 22:15 250 11.1
2020-Jan-15 22:01 266 11.1
2020-Jan-15 21:45 271 11.1
2020-Jan-15 21:30 262 11.1
2020-Jan-15 21:15 296 12.2
2020-Jan-15 21:01 293 12.2
2020-Jan-15 20:45 298 12.8
2020-Jan-15 20:30 301 12.2
2020-Jan-15 20:15 293 12.2
2020-Jan-15 20:00 316 12.2
2020-Jan-15 19:45 264 12.8
2020-Jan-15 19:30 306 12.8
2020-Jan-15 19:15 289 12.8
2020-Jan-15 19:00 298 12.8
2020-Jan-15 18:45 282 12.8
2020-Jan-15 18:30 291 13.3
2020-Jan-15 18:15 310 0 gusting 6 13.3
2020-Jan-15 18:00 294 13.9